createdAt,value
2022-10-05T00:03:12.881Z,9.07
2022-10-05T00:13:18.348Z,8.57
2022-10-05T00:23:26.190Z,8.97
2022-10-05T00:33:32.226Z,9.00
2022-10-05T00:43:51.161Z,10.60
2022-10-05T00:54:07.852Z,8.30
2022-10-05T01:04:25.150Z,7.90
2022-10-05T01:14:33.382Z,9.30
2022-10-05T01:24:51.078Z,7.03
2022-10-05T01:35:09.960Z,8.50
2022-10-05T01:45:27.604Z,7.67
2022-10-05T01:55:40.454Z,10.23
2022-10-05T02:05:51.657Z,7.80
2022-10-05T02:16:02.370Z,9.47
2022-10-05T02:26:08.028Z,8.83
2022-10-05T02:36:18.466Z,12.03
2022-10-05T02:46:34.723Z,9.10
2022-10-05T02:56:47.987Z,12.23
2022-10-05T03:07:03.830Z,8.57
2022-10-05T03:17:17.213Z,12.63
2022-10-05T03:27:33.055Z,9.00
2022-10-05T03:37:47.523Z,12.83
2022-10-05T03:48:01.478Z,11.30
2022-10-05T03:58:15.587Z,10.40
2022-10-05T04:08:24.206Z,10.07
2022-10-05T04:18:33.628Z,7.85
2022-10-05T04:28:46.517Z,9.43
2022-10-05T04:39:03.688Z,9.53
2022-10-05T04:49:29.636Z,7.70
2022-10-05T04:59:52.689Z,7.60
2022-10-05T05:10:19.322Z,9.07
2022-10-05T05:20:38.165Z,11.03
2022-10-05T05:30:47.228Z,6.85
2022-10-05T05:41:07.183Z,11.83
2022-10-05T05:51:16.502Z,8.47
2022-10-05T06:11:46.416Z,11.83
2022-10-05T06:22:30.658Z,13.00
2022-10-05T06:32:46.797Z,14.73
2022-10-05T06:43:22.622Z,15.90
2022-10-05T06:53:57.829Z,11.93
2022-10-05T07:04:31.267Z,12.67
2022-10-05T07:15:40.863Z,8.30
2022-10-05T07:26:19.696Z,10.40
2022-10-05T07:37:10.712Z,12.23
2022-10-05T07:47:48.888Z,11.67
2022-10-05T07:58:06.595Z,9.10
2022-10-05T08:08:26.122Z,9.17
2022-10-05T08:19:14.529Z,6.97
2022-10-05T08:29:32.474Z,7.07
2022-10-05T08:39:40.672Z,9.97
2022-10-05T08:50:16.771Z,7.57
2022-10-05T09:00:23.595Z,6.93
2022-10-05T09:11:05.766Z,7.33
2022-10-05T09:21:24.921Z,5.70
2022-10-05T09:31:51.915Z,5.27
2022-10-05T09:42:31.160Z,4.27
2022-10-05T09:53:28.382Z,1.73
2022-10-05T10:03:58.541Z,2.67
2022-10-05T10:14:20.689Z,4.30
2022-10-05T10:24:42.923Z,2.07
2022-10-05T10:35:23.000Z,2.70
2022-10-05T10:45:51.854Z,3.00
2022-10-05T10:56:15.839Z,1.93
2022-10-05T11:07:03.290Z,3.17
2022-10-05T11:17:41.951Z,5.27
2022-10-05T11:28:00.997Z,1.57
2022-10-05T11:38:32.640Z,2.73
2022-10-05T11:48:48.207Z,3.43
2022-10-05T11:58:57.853Z,2.28
2022-10-05T12:09:13.761Z,2.78
2022-10-05T12:19:27.240Z,3.15
2022-10-05T12:29:39.773Z,1.95
2022-10-05T12:39:51.553Z,2.05
2022-10-05T12:50:04.497Z,1.73
2022-10-05T13:00:14.663Z,1.60
2022-10-05T13:10:31.625Z,1.40
2022-10-05T13:20:44.677Z,2.97
2022-10-05T13:30:56.835Z,1.60
2022-10-05T13:41:11.804Z,4.47
2022-10-05T13:51:20.357Z,3.15
2022-10-05T14:01:41.568Z,1.63
2022-10-05T14:11:52.075Z,3.00
2022-10-05T14:22:02.239Z,1.85
2022-10-05T14:32:15.079Z,2.92
2022-10-05T14:42:23.021Z,2.90
2022-10-05T14:52:32.638Z,3.20
2022-10-05T15:02:55.647Z,3.27
2022-10-05T15:13:11.232Z,2.83
2022-10-05T15:23:24.840Z,2.90
2022-10-05T15:33:35.700Z,7.07
2022-10-05T15:43:51.286Z,4.60
2022-10-05T15:54:14.759Z,4.97
2022-10-05T16:04:30.127Z,2.30
2022-10-05T16:14:48.730Z,2.97
2022-10-05T16:25:06.704Z,4.40
2022-10-05T16:35:18.790Z,5.13
2022-10-05T16:45:30.659Z,4.83
2022-10-05T16:55:38.685Z,5.13
2022-10-05T17:06:13.288Z,7.10
2022-10-05T17:16:26.170Z,3.20
2022-10-05T17:26:54.887Z,7.57
2022-10-05T17:37:00.075Z,5.57
2022-10-05T17:47:09.090Z,4.67
2022-10-05T17:57:24.661Z,2.87
2022-10-05T18:07:29.675Z,5.77
2022-10-05T18:17:40.260Z,5.53
2022-10-05T18:28:02.713Z,7.80
2022-10-05T18:38:16.702Z,3.97
2022-10-05T18:48:33.497Z,8.70
2022-10-05T18:58:52.016Z,6.87
2022-10-05T19:09:08.023Z,4.27
2022-10-05T19:19:30.911Z,3.50
2022-10-05T19:30:11.911Z,3.73
2022-10-05T19:40:24.320Z,7.70
2022-10-05T19:50:30.331Z,2.20
2022-10-05T20:00:35.467Z,5.80
2022-10-05T20:10:39.823Z,4.43
2022-10-05T20:20:47.141Z,8.70
2022-10-05T20:30:55.351Z,5.37
2022-10-05T20:40:58.222Z,5.67
2022-10-05T20:51:02.555Z,5.00
2022-10-05T21:01:18.371Z,5.90
2022-10-05T21:11:22.981Z,3.20
2022-10-05T21:21:27.875Z,1.73
2022-10-05T21:31:33.359Z,4.23
2022-10-05T21:41:36.316Z,5.03
2022-10-05T21:51:41.326Z,3.97
2022-10-05T22:01:44.327Z,4.80
2022-10-05T22:11:49.751Z,6.53
2022-10-05T22:21:52.778Z,4.47
2022-10-05T22:31:57.584Z,5.23
2022-10-05T22:42:00.491Z,3.37
2022-10-05T22:52:04.701Z,5.70
2022-10-05T23:02:07.664Z,3.37
2022-10-05T23:12:13.675Z,1.40
2022-10-05T23:22:16.683Z,1.23
2022-10-05T23:32:20.890Z,4.13
2022-10-05T23:42:23.890Z,4.20
2022-10-05T23:52:28.348Z,7.70
